Time;durP1;ratioP1;P1;durP2;ratioP2;P2;SDS_P1;SDS_P2;PMS_P1;PMS_P2;Temp;Humidity;BMP_temperature;BMP_pressure;BME280_temperature;BME280_humidity;BME280_pressure;Samples;Min_cycle;Max_cycle;Signal;HPM_P1;HPM_P2
2022/08/02 00:00:51;;;;;;;;;;;;;;;23.71;52.22;101451.09;7278993;19;152404;-66
2022/08/02 00:03:21;;;;;;;;;;;;;;;23.87;52.11;101450.38;7283976;19;152945;-67
2022/08/02 00:05:50;;;;;;;;;;;;;;;23.62;52.49;101453.00;7281336;19;153857;-67
2022/08/02 00:08:19;;;;;;;;;;;;;;;23.58;53.04;101440.63;7287392;19;151911;-67
2022/08/02 00:10:46;;;;;;;;;;;;;;;23.65;52.81;101441.06;7286868;19;154256;-67
2022/08/02 00:13:13;;;;;;;;;;;;;;;23.69;52.73;101442.09;7295225;19;154218;-67
2022/08/02 00:15:40;;;;;;;;;;;;;;;23.65;52.50;101436.25;7287080;19;153299;-67
2022/08/02 00:18:07;;;;;;;;;;;;;;;23.69;52.59;101439.28;7285897;19;154169;-67
2022/08/02 00:20:33;;;;;;;;;;;;;;;23.60;52.95;101444.00;7286170;19;152294;-67
2022/08/02 00:23:00;;;;;;;;;;;;;;;23.58;53.11;101437.81;7287520;19;152328;-67
2022/08/02 00:25:27;;;;;;;;;;;;;;;23.44;53.47;101444.31;7285677;19;153165;-67
2022/08/02 00:27:54;;;;;;;;;;;;;;;23.53;53.40;101435.94;7288098;19;152040;-67
2022/08/02 00:30:21;;;;;;;;;;;;;;;23.43;53.61;101442.66;7287529;19;153207;-67
2022/08/02 00:32:48;;;;;;;;;;;;;;;23.52;53.20;101436.28;7286876;19;152042;-67
2022/08/02 00:35:15;;;;;;;;;;;;;;;23.47;53.58;101438.06;7291149;19;152550;-67
2022/08/02 00:37:42;;;;;;;;;;;;;;;23.46;53.82;101427.94;7286689;19;152463;-66
2022/08/02 00:40:09;;;;;;;;;;;;;;;23.47;53.72;101440.91;7285681;19;152465;-67
2022/08/02 00:42:36;;;;;;;;;;;;;;;23.44;53.53;101438.69;7286074;19;153081;-67
2022/08/02 00:45:04;;;;;;;;;;;;;;;23.44;53.80;101435.03;7286119;19;154365;-67
2022/08/02 00:47:30;;;;;;;;;;;;;;;23.48;53.85;101430.44;7288868;19;152604;-67
2022/08/02 00:49:57;;;;;;;;;;;;;;;23.56;53.68;101426.03;7284041;19;153080;-67
2022/08/02 00:52:24;;;;;;;;;;;;;;;23.35;53.97;101434.91;7285495;19;152996;-67
2022/08/02 00:54:51;;;;;;;;;;;;;;;23.44;54.04;101433.03;7285725;19;153415;-67
2022/08/02 00:57:18;;;;;;;;;;;;;;;23.45;53.80;101431.91;7292095;19;153220;-67
2022/08/02 00:59:45;;;;;;;;;;;;;;;23.37;54.25;101438.25;7286734;19;152226;-66
2022/08/02 01:02:12;;;;;;;;;;;;;;;23.47;53.84;101432.44;7282840;19;152805;-66
2022/08/02 01:04:39;;;;;;;;;;;;;;;23.42;54.01;101426.88;7247461;19;155673;-67
2022/08/02 01:07:09;;;;;;;;;;;;;;;23.56;53.44;101426.03;7279326;19;151740;-67
2022/08/02 01:09:43;;;;;;;;;;;;;;;23.49;53.91;101418.00;7284725;19;152228;-67
2022/08/02 01:12:10;;;;;;;;;;;;;;;23.41;54.21;101419.56;7284061;19;153371;-67
2022/08/02 01:14:40;;;;;;;;;;;;;;;23.33;54.83;101413.84;7285563;19;152019;-67
2022/08/02 01:17:17;;;;;;;;;;;;;;;23.41;54.35;101415.91;7282419;19;152406;-67
2022/08/02 01:20:02;;;;;;;;;;;;;;;23.46;54.12;101413.00;7288690;19;154320;-67
2022/08/02 01:22:49;;;;;;;;;;;;;;;23.47;53.94;101407.06;7284379;19;152396;-67
2022/08/02 01:25:43;;;;;;;;;;;;;;;23.42;54.70;101409.13;7281136;19;153918;-67
2022/08/02 01:28:43;;;;;;;;;;;;;;;23.32;54.87;101401.72;7283200;19;152782;-67
2022/08/02 01:31:15;;;;;;;;;;;;;;;23.23;55.58;101391.50;7283302;19;152537;-66
2022/08/02 01:33:44;;;;;;;;;;;;;;;23.35;54.78;101398.25;7282340;19;153494;-67
2022/08/02 01:36:13;;;;;;;;;;;;;;;23.28;55.21;101395.03;7282888;19;153016;-67
2022/08/02 01:38:45;;;;;;;;;;;;;;;23.24;55.36;101401.63;7285138;19;153984;-67
2022/08/02 01:41:15;;;;;;;;;;;;;;;23.27;55.26;101403.81;7292507;19;153405;-67
2022/08/02 01:43:43;;;;;;;;;;;;;;;23.30;55.36;101406.00;7284253;19;153822;-67
2022/08/02 01:46:12;;;;;;;;;;;;;;;23.32;55.31;101412.16;7284086;19;153258;-67
2022/08/02 01:48:39;;;;;;;;;;;;;;;23.31;55.34;101405.69;7281146;19;152334;-67
2022/08/02 01:51:07;;;;;;;;;;;;;;;23.24;55.74;101402.47;7285432;19;153497;-67
2022/08/02 01:53:34;;;;;;;;;;;;;;;23.25;55.66;101406.13;7283208;19;154064;-67
2022/08/02 01:56:02;;;;;;;;;;;;;;;23.29;55.62;101415.63;7284453;19;152191;-67
2022/08/02 01:58:30;;;;;;;;;;;;;;;23.21;55.69;101408.75;7283437;19;152381;-67
2022/08/02 02:00:58;;;;;;;;;;;;;;;23.16;56.31;101414.50;7283557;19;153798;-67
2022/08/02 02:03:26;;;;;;;;;;;;;;;23.27;55.81;101415.94;7291049;19;151997;-67
2022/08/02 02:05:55;;;;;;;;;;;;;;;23.26;56.02;101419.88;7281113;19;153520;-67
2022/08/02 02:08:25;;;;;;;;;;;;;;;23.16;56.10;101420.13;7284093;19;152201;-67
2022/08/02 02:10:54;;;;;;;;;;;;;;;23.21;55.93;101422.00;7283733;19;153782;-67
2022/08/02 02:13:23;;;;;;;;;;;;;;;23.19;56.37;101404.56;7283328;19;153340;-67
2022/08/02 02:16:01;;;;;;;;;;;;;;;23.21;56.36;101397.47;7282117;19;153374;-67
2022/08/02 02:18:29;;;;;;;;;;;;;;;23.23;56.15;101386.69;7284196;19;155495;-67
2022/08/02 02:20:56;;;;;;;;;;;;;;;23.34;55.95;101382.50;7282219;19;154119;-67
2022/08/02 02:23:23;;;;;;;;;;;;;;;23.23;56.59;101385.84;7282837;19;152362;-67
2022/08/02 02:25:52;;;;;;;;;;;;;;;23.26;56.71;101371.16;7288989;19;152223;-67
2022/08/02 02:28:29;;;;;;;;;;;;;;;23.19;56.68;101370.72;7285675;19;151890;-67
2022/08/02 02:31:22;;;;;;;;;;;;;;;23.19;56.92;101374.38;7284633;19;154352;-67
2022/08/02 02:33:51;;;;;;;;;;;;;;;23.24;56.68;101365.81;7280374;19;153483;-67
2022/08/02 02:36:20;;;;;;;;;;;;;;;23.21;56.95;101372.09;7283070;19;151937;-67
2022/08/02 02:38:47;;;;;;;;;;;;;;;23.25;56.72;101367.50;7284180;19;152885;-67
2022/08/02 02:41:15;;;;;;;;;;;;;;;23.35;56.61;101355.13;7280689;19;153525;-65
2022/08/02 02:43:42;;;;;;;;;;;;;;;23.33;56.77;101358.28;7283257;19;152430;-65
2022/08/02 02:46:11;;;;;;;;;;;;;;;23.22;57.53;101350.34;7283564;19;152447;-65
2022/08/02 02:48:38;;;;;;;;;;;;;;;23.11;57.95;101352.59;7287713;19;153085;-65
2022/08/02 02:51:07;;;;;;;;;;;;;;;23.17;57.90;101353.31;7283351;19;154695;-65
2022/08/02 02:53:40;;;;;;;;;;;;;;;23.23;58.03;101349.22;7282069;19;154340;-65
2022/08/02 02:56:27;;;;;;;;;;;;;;;23.16;58.13;101346.00;7280282;19;152737;-65
2022/08/02 02:58:54;;;;;;;;;;;;;;;23.17;58.00;101351.31;7284151;19;152579;-65
2022/08/02 03:01:28;;;;;;;;;;;;;;;23.19;58.29;101360.28;7279905;19;153339;-65
2022/08/02 03:04:15;;;;;;;;;;;;;;;23.11;58.87;101358.22;7278767;19;152363;-65
2022/08/02 03:06:42;;;;;;;;;;;;;;;22.95;59.86;101346.44;7282346;19;152940;-65
2022/08/02 03:09:10;;;;;;;;;;;;;;;23.05;59.19;101349.03;7275733;19;153153;-65
2022/08/02 03:11:37;;;;;;;;;;;;;;;23.08;59.47;101338.28;7290816;19;152344;-65
2022/08/02 03:14:07;;;;;;;;;;;;;;;23.08;59.74;101347.56;7281778;19;153622;-65
2022/08/02 03:16:40;;;;;;;;;;;;;;;23.03;60.14;101348.50;7282013;19;152282;-65
2022/08/02 03:19:07;;;;;;;;;;;;;;;23.00;60.14;101337.03;7279924;19;152582;-65
2022/08/02 03:21:34;;;;;;;;;;;;;;;22.96;60.38;101342.47;7281114;19;152506;-65
2022/08/02 03:24:00;;;;;;;;;;;;;;;23.07;60.15;101331.81;7282596;19;152865;-65
2022/08/02 03:26:27;;;;;;;;;;;;;;;22.94;60.81;101336.31;7282855;19;153805;-65
2022/08/02 03:28:54;;;;;;;;;;;;;;;22.93;60.81;101337.47;7279550;19;153980;-65
2022/08/02 03:31:21;;;;;;;;;;;;;;;22.83;61.67;101332.06;7282855;19;152089;-65
2022/08/02 03:33:48;;;;;;;;;;;;;;;22.91;61.28;101338.94;7284765;19;153917;-65
2022/08/02 03:36:18;;;;;;;;;;;;;;;22.80;62.09;101327.06;7287092;19;153418;-65
2022/08/02 03:38:45;;;;;;;;;;;;;;;22.77;62.17;101322.03;7289287;19;152908;-65
2022/08/02 03:41:12;;;;;;;;;;;;;;;22.83;62.38;101319.97;7288325;19;154165;-65
2022/08/02 03:43:39;;;;;;;;;;;;;;;22.89;62.03;101327.16;7289534;19;153715;-65
2022/08/02 03:46:07;;;;;;;;;;;;;;;22.97;61.49;101332.03;7289587;19;153553;-65
2022/08/02 03:48:35;;;;;;;;;;;;;;;22.98;61.47;101316.81;7283741;19;153951;-65
2022/08/02 03:51:02;;;;;;;;;;;;;;;22.88;61.99;101311.41;7289161;19;152953;-65
2022/08/02 03:53:29;;;;;;;;;;;;;;;22.95;62.04;101314.59;7278111;19;153677;-65
2022/08/02 03:56:05;;;;;;;;;;;;;;;22.96;62.00;101308.66;7273006;19;152419;-65
2022/08/02 03:58:41;;;;;;;;;;;;;;;23.05;61.23;101309.59;7286378;19;151898;-65
2022/08/02 04:01:14;;;;;;;;;;;;;;;23.12;61.06;101309.16;7285149;19;152927;-65
2022/08/02 04:03:41;;;;;;;;;;;;;;;23.09;61.17;101301.31;7280643;19;153988;-65
2022/08/02 04:06:08;;;;;;;;;;;;;;;23.10;61.20;101305.81;7281525;19;153633;-65
2022/08/02 04:08:34;;;;;;;;;;;;;;;23.01;61.45;101302.06;7284275;19;152560;-65
2022/08/02 04:13:50;;;;;;;;;;;;;;;22.90;62.44;101304.28;7286287;19;153446;-65
2022/08/02 04:16:21;;;;;;;;;;;;;;;22.87;62.79;101307.75;7291686;19;154603;-65
2022/08/02 04:18:59;;;;;;;;;;;;;;;22.94;62.40;101319.41;7282302;19;153193;-65
2022/08/02 04:21:30;;;;;;;;;;;;;;;22.78;63.88;101315.25;7283739;19;153215;-65
2022/08/02 04:24:17;;;;;;;;;;;;;;;22.80;63.72;101314.97;7283047;19;153062;-65
2022/08/02 04:26:45;;;;;;;;;;;;;;;22.71;64.79;101317.69;7286980;19;152270;-65
2022/08/02 04:29:16;;;;;;;;;;;;;;;22.72;64.64;101332.56;7285662;19;152282;-65
2022/08/02 04:31:43;;;;;;;;;;;;;;;22.74;64.85;101331.13;7288266;19;152040;-65
2022/08/02 04:34:10;;;;;;;;;;;;;;;22.70;65.46;101326.44;7282417;19;153298;-65
2022/08/02 04:36:41;;;;;;;;;;;;;;;22.67;65.49;101332.69;7285019;19;152719;-65
2022/08/02 04:39:08;;;;;;;;;;;;;;;22.76;65.57;101337.28;7294174;19;152154;-65
2022/08/02 04:41:41;;;;;;;;;;;;;;;22.53;67.25;101333.50;7286585;19;152774;-65
2022/08/02 04:44:10;;;;;;;;;;;;;;;22.60;67.15;101333.94;7286777;19;152538;-65
2022/08/02 04:46:37;;;;;;;;;;;;;;;22.60;67.05;101333.94;7286368;19;153188;-65
2022/08/02 04:49:04;;;;;;;;;;;;;;;22.63;67.30;101327.66;7283312;19;156490;-65
2022/08/02 04:51:38;;;;;;;;;;;;;;;22.61;67.73;101334.75;7286862;19;152320;-65
2022/08/02 04:54:06;;;;;;;;;;;;;;;22.57;67.87;101339.34;7283416;19;152183;-65
2022/08/02 04:56:35;;;;;;;;;;;;;;;22.53;68.17;101333.50;7286555;19;154321;-65
2022/08/02 04:59:02;;;;;;;;;;;;;;;22.62;68.10;101344.88;7287304;19;153111;-65
2022/08/02 05:01:34;;;;;;;;;;;;;;;22.65;67.76;101338.63;7291837;19;152974;-65
2022/08/02 05:04:01;;;;;;;;;;;;;;;22.56;68.88;101338.53;7283906;19;152455;-65
2022/08/02 05:06:28;;;;;;;;;;;;;;;22.65;68.31;101334.97;7285205;19;152631;-65
2022/08/02 05:08:55;;;;;;;;;;;;;;;22.48;69.37;101328.00;7284457;19;153358;-65
2022/08/02 05:11:22;;;;;;;;;;;;;;;22.71;67.94;101325.31;7285284;19;152465;-65
2022/08/02 05:14:02;;;;;;;;;;;;;;;22.61;68.57;101327.16;7284554;19;153322;-65
2022/08/02 05:16:29;;;;;;;;;;;;;;;22.49;70.18;101328.78;7285696;19;153989;-65
2022/08/02 05:18:56;;;;;;;;;;;;;;;22.44;71.13;101334.56;7283862;19;152415;-65
2022/08/02 05:21:23;;;;;;;;;;;;;;;22.25;73.57;101345.06;7286129;19;152300;-65
2022/08/02 05:23:50;;;;;;;;;;;;;;;22.39;72.38;101329.03;7291897;19;153786;-65
2022/08/02 05:26:17;;;;;;;;;;;;;;;22.23;73.63;101344.53;7285748;19;152751;-65
2022/08/02 05:28:43;;;;;;;;;;;;;;;22.30;73.67;101343.00;7284838;19;153580;-65
2022/08/02 05:31:10;;;;;;;;;;;;;;;22.33;73.48;101324.63;7284683;19;152462;-65
2022/08/02 05:33:39;;;;;;;;;;;;;;;22.33;73.29;101325.47;7282106;19;153000;-65
2022/08/02 05:36:08;;;;;;;;;;;;;;;22.24;74.56;101338.59;7284118;19;154038;-65
2022/08/02 05:38:35;;;;;;;;;;;;;;;22.36;73.15;101338.91;7281417;19;152573;-65
2022/08/02 05:41:03;;;;;;;;;;;;;;;22.39;73.09;101332.69;7286168;19;153341;-65
2022/08/02 05:43:30;;;;;;;;;;;;;;;22.48;72.39;101332.78;7283530;19;153365;-65
2022/08/02 05:45:57;;;;;;;;;;;;;;;22.43;73.46;101342.16;7293423;19;151680;-65
2022/08/02 05:48:23;;;;;;;;;;;;;;;22.39;73.86;101332.69;7284151;19;153788;-65
2022/08/02 05:51:05;;;;;;;;;;;;;;;22.32;74.95;101351.09;7285166;19;154157;-65
2022/08/02 05:53:36;;;;;;;;;;;;;;;22.30;75.10;101340.19;7284407;19;152167;-64
2022/08/02 05:56:22;;;;;;;;;;;;;;;22.29;75.59;101363.00;7283730;19;153299;-65
2022/08/02 05:58:55;;;;;;;;;;;;;;;22.22;76.40;101345.66;7282411;19;151871;-65
2022/08/02 06:01:33;;;;;;;;;;;;;;;22.20;77.03;101357.25;7284284;19;153913;-65
2022/08/02 06:04:00;;;;;;;;;;;;;;;22.06;78.58;101357.22;7278422;19;154489;-65
2022/08/02 06:06:28;;;;;;;;;;;;;;;22.12;78.54;101349.53;7290912;19;152132;-65
2022/08/02 06:08:59;;;;;;;;;;;;;;;22.05;79.39;101347.09;7282513;19;153259;-65
2022/08/02 06:11:33;;;;;;;;;;;;;;;22.14;78.69;101348.06;7283856;19;152050;-65
2022/08/02 06:14:01;;;;;;;;;;;;;;;22.20;77.82;101340.38;7284831;19;153423;-65
2022/08/02 06:16:29;;;;;;;;;;;;;;;22.19;77.79;101333.06;7281666;19;152628;-65
2022/08/02 06:18:59;;;;;;;;;;;;;;;22.17;78.56;101343.78;7279988;19;153073;-65
2022/08/02 06:21:26;;;;;;;;;;;;;;;22.11;78.95;101339.41;7282711;19;153029;-65
2022/08/02 06:24:12;;;;;;;;;;;;;;;22.13;79.09;101340.75;7282230;19;156541;-65
2022/08/02 06:26:40;;;;;;;;;;;;;;;22.09;79.92;101347.31;7284827;19;152442;-65
2022/08/02 06:29:07;;;;;;;;;;;;;;;22.12;80.28;101336.25;7291276;19;153003;-65
2022/08/02 06:31:34;;;;;;;;;;;;;;;22.06;80.85;101333.88;7285206;19;152106;-65
2022/08/02 06:34:01;;;;;;;;;;;;;;;22.25;78.89;101333.81;7280785;19;153413;-65
2022/08/02 06:36:41;;;;;;;;;;;;;;;22.27;78.36;101340.78;7282367;19;153858;-65
2022/08/02 06:39:25;;;;;;;;;;;;;;;22.31;78.28;101335.34;7280412;19;152651;-65
2022/08/02 06:41:57;;;;;;;;;;;;;;;22.31;78.34;101340.97;7284288;19;152232;-65
2022/08/02 06:44:24;;;;;;;;;;;;;;;22.21;80.10;101330.78;7282054;19;155236;-65
2022/08/02 06:47:10;;;;;;;;;;;;;;;22.32;78.75;101331.41;7282201;19;152015;-65
2022/08/02 06:49:39;;;;;;;;;;;;;;;22.27;79.29;101328.69;7280363;19;152762;-65
2022/08/02 06:52:29;;;;;;;;;;;;;;;22.24;79.98;101338.59;7289755;19;152670;-65
2022/08/02 06:54:57;;;;;;;;;;;;;;;22.32;79.15;101331.41;7283354;19;152020;-65
2022/08/02 06:57:24;;;;;;;;;;;;;;;22.29;79.95;101334.84;7282456;19;153274;-65
2022/08/02 06:59:51;;;;;;;;;;;;;;;22.22;81.57;101340.03;7282343;19;152142;-65
2022/08/02 07:02:18;;;;;;;;;;;;;;;22.30;80.73;101326.09;7280038;19;152879;-65
2022/08/02 07:04:44;;;;;;;;;;;;;;;22.28;81.46;101336.81;7278914;19;153950;-65
2022/08/02 07:07:11;;;;;;;;;;;;;;;22.26;81.87;101321.41;7282321;19;152216;-65
2022/08/02 07:09:38;;;;;;;;;;;;;;;22.26;81.67;101333.47;7280798;19;152642;-65
2022/08/02 07:12:21;;;;;;;;;;;;;;;22.24;82.21;101332.13;7281644;19;152725;-65
2022/08/02 07:14:48;;;;;;;;;;;;;;;22.18;82.99;101325.75;7290865;19;152038;-65
2022/08/02 07:17:14;;;;;;;;;;;;;;;22.29;81.42;101321.59;7281571;19;152611;-65
2022/08/02 07:19:41;;;;;;;;;;;;;;;22.28;81.83;101328.38;7277635;19;152090;-65
2022/08/02 07:22:08;;;;;;;;;;;;;;;22.38;80.64;101328.19;7282739;19;152545;-65
2022/08/02 07:24:35;;;;;;;;;;;;;;;22.45;79.68;101327.75;7280387;19;154035;-65
2022/08/02 07:27:01;;;;;;;;;;;;;;;22.48;79.16;101327.16;7282311;19;152324;-65
2022/08/02 07:29:38;;;;;;;;;;;;;;;22.46;79.35;101330.28;7283451;19;153343;-65
2022/08/02 07:32:15;;;;;;;;;;;;;;;22.45;79.20;101322.97;7280736;19;152840;-65
2022/08/02 07:34:43;;;;;;;;;;;;;;;22.52;79.33;101331.84;7280460;19;152440;-65
2022/08/02 07:37:16;;;;;;;;;;;;;;;22.50;79.36;101325.69;7287175;19;153003;-64
2022/08/02 07:40:04;;;;;;;;;;;;;;;22.52;78.85;101320.59;7282003;19;151972;-65
2022/08/02 07:42:39;;;;;;;;;;;;;;;22.52;79.20;101325.38;7282589;19;153308;-65
2022/08/02 07:45:05;;;;;;;;;;;;;;;22.52;79.12;101314.09;7279482;19;153246;-65
2022/08/02 07:47:35;;;;;;;;;;;;;;;22.52;79.58;101319.75;7281726;19;152338;-65
2022/08/02 07:50:01;;;;;;;;;;;;;;;22.72;77.10;101313.69;7279794;19;153087;-65
2022/08/02 07:52:28;;;;;;;;;;;;;;;22.78;77.16;101328.50;7280719;19;153231;-65
2022/08/02 07:54:55;;;;;;;;;;;;;;;22.68;77.69;101323.91;7281228;19;153855;-65
2022/08/02 07:57:21;;;;;;;;;;;;;;;22.64;78.47;101314.41;7282818;19;153141;-65
2022/08/02 07:59:49;;;;;;;;;;;;;;;22.66;78.27;101317.75;7282987;19;152467;-65
2022/08/02 08:02:17;;;;;;;;;;;;;;;22.65;77.80;101324.53;7277490;19;152202;-65
2022/08/02 08:04:43;;;;;;;;;;;;;;;22.65;78.43;101320.88;7274481;19;153304;-64
2022/08/02 08:07:10;;;;;;;;;;;;;;;22.64;78.70;101331.31;7282409;19;152314;-65
2022/08/02 08:09:40;;;;;;;;;;;;;;;22.63;78.67;101318.38;7277459;19;153649;-65
2022/08/02 08:12:07;;;;;;;;;;;;;;;22.70;77.94;101327.28;7278628;19;152737;-65
2022/08/02 08:14:35;;;;;;;;;;;;;;;22.67;78.31;101315.78;7280248;19;153116;-65
2022/08/02 08:17:02;;;;;;;;;;;;;;;22.62;79.20;101311.91;7280677;19;152058;-65
2022/08/02 08:19:29;;;;;;;;;;;;;;;22.67;78.63;101319.41;7280296;19;154179;-65
2022/08/02 08:22:16;;;;;;;;;;;;;;;22.69;78.22;101325.56;7281200;19;155371;-65
2022/08/02 08:24:42;;;;;;;;;;;;;;;22.67;78.76;101322.22;7283513;19;153775;-65
2022/08/02 08:27:13;;;;;;;;;;;;;;;22.72;78.87;101321.31;7286774;19;152273;-65
2022/08/02 08:29:41;;;;;;;;;;;;;;;22.74;78.30;101322.69;7284977;19;152816;-65
2022/08/02 08:32:07;;;;;;;;;;;;;;;22.74;78.39;101322.69;7285309;19;153815;-65
2022/08/02 08:34:41;;;;;;;;;;;;;;;22.81;78.24;101320.25;7282867;19;153793;-65
2022/08/02 08:37:08;;;;;;;;;;;;;;;22.83;77.39;101326.44;7287188;19;152674;-65
2022/08/02 08:39:42;;;;;;;;;;;;;;;22.83;77.62;101319.97;7282385;19;154508;-65
2022/08/02 08:42:24;;;;;;;;;;;;;;;22.82;77.92;101319.13;7294269;19;152752;-65
2022/08/02 08:44:51;;;;;;;;;;;;;;;22.88;77.77;101320.69;7285262;19;153975;-65
2022/08/02 08:47:19;;;;;;;;;;;;;;;22.89;77.79;101318.72;7286382;19;152309;-65
2022/08/02 08:49:47;;;;;;;;;;;;;;;22.91;76.73;101327.66;7284666;19;154503;-65
2022/08/02 08:52:18;;;;;;;;;;;;;;;22.91;76.91;101320.03;7282601;19;153256;-65
2022/08/02 08:54:47;;;;;;;;;;;;;;;22.94;77.04;101332.69;7283970;19;152541;-65
2022/08/02 08:57:14;;;;;;;;;;;;;;;22.99;76.57;101332.53;7284380;19;152305;-65
2022/08/02 08:59:41;;;;;;;;;;;;;;;22.89;77.35;101330.81;7280507;19;153544;-65
2022/08/02 09:02:10;;;;;;;;;;;;;;;22.92;77.21;101326.53;7284914;19;152813;-65
2022/08/02 09:04:48;;;;;;;;;;;;;;;22.89;77.38;101336.44;7288166;19;152699;-65
2022/08/02 09:07:21;;;;;;;;;;;;;;;22.90;77.18;101334.44;7285609;19;151935;-65
2022/08/02 09:09:47;;;;;;;;;;;;;;;22.92;76.98;101334.97;7283156;19;153407;-65
2022/08/02 09:12:14;;;;;;;;;;;;;;;22.93;77.03;101337.47;7285368;19;153672;-65
2022/08/02 09:14:41;;;;;;;;;;;;;;;23.00;76.46;101332.25;7283633;19;151962;-65
2022/08/02 09:17:09;;;;;;;;;;;;;;;22.96;76.80;101336.00;7285539;19;154412;-65
2022/08/02 09:19:35;;;;;;;;;;;;;;;23.00;76.47;101337.88;7279504;19;154082;-66
2022/08/02 09:22:09;;;;;;;;;;;;;;;23.02;76.57;101343.22;7285333;19;152234;-65
2022/08/02 09:24:47;;;;;;;;;;;;;;;22.96;76.49;101338.81;7284814;19;154252;-65
2022/08/02 09:27:18;;;;;;;;;;;;;;;22.96;76.82;101339.66;7289364;19;154315;-65
2022/08/02 09:29:51;;;;;;;;;;;;;;;22.96;76.98;101334.03;7285944;19;152987;-65
2022/08/02 09:32:45;;;;;;;;;;;;;;;23.03;76.85;101319.53;7283767;19;156164;-65
2022/08/02 09:35:14;;;;;;;;;;;;;;;23.00;76.89;101332.25;7282440;19;152161;-65
2022/08/02 09:37:40;;;;;;;;;;;;;;;23.04;76.81;101326.78;7285047;19;152489;-65
2022/08/02 09:40:12;;;;;;;;;;;;;;;23.07;76.82;101325.34;7281311;19;153520;-65
2022/08/02 09:42:56;;;;;;;;;;;;;;;23.12;76.39;101323.25;7286652;19;152474;-65
2022/08/02 09:45:28;;;;;;;;;;;;;;;23.13;76.64;101322.06;7283180;19;153455;-65
2022/08/02 09:47:55;;;;;;;;;;;;;;;23.16;75.47;101321.47;7281545;19;154093;-65
2022/08/02 09:50:21;;;;;;;;;;;;;;;23.21;76.25;101320.50;7290002;19;152271;-65
2022/08/02 09:52:48;;;;;;;;;;;;;;;23.19;76.23;101317.16;7283871;19;153937;-65
2022/08/02 09:55:15;;;;;;;;;;;;;;;23.19;75.47;101323.63;7282070;19;152260;-64
2022/08/02 09:57:42;;;;;;;;;;;;;;;23.19;75.67;101323.63;7286226;19;153400;-65
2022/08/02 10:00:16;;;;;;;;;;;;;;;23.22;75.73;101323.00;7280880;19;153484;-65
2022/08/02 10:03:09;;;;;;;;;;;;;;;23.25;75.27;101321.53;7281496;19;153184;-64
2022/08/02 10:05:52;;;;;;;;;;;;;;;23.26;75.38;101324.03;7280838;19;152896;-65
2022/08/02 10:08:31;;;;;;;;;;;;;;;23.31;75.24;101332.38;7266904;19;154478;-64
2022/08/02 10:11:01;;;;;;;;;;;;;;;23.33;75.00;101324.44;7286626;19;154621;-65
2022/08/02 10:13:32;;;;;;;;;;;;;;;23.31;75.45;101328.72;7283566;19;155308;-65
2022/08/02 10:16:01;;;;;;;;;;;;;;;23.33;75.22;101329.25;7284574;19;152450;-65
2022/08/02 10:18:28;;;;;;;;;;;;;;;23.35;74.96;101333.38;7281314;19;153307;-65
2022/08/02 10:21:06;;;;;;;;;;;;;;;23.35;75.45;101324.09;7258400;19;154098;-65
2022/08/02 10:23:34;;;;;;;;;;;;;;;23.40;74.69;101316.34;7276098;19;153578;-64
2022/08/02 10:26:02;;;;;;;;;;;;;;;23.37;75.04;101327.44;7280133;19;152584;-65
2022/08/02 10:28:31;;;;;;;;;;;;;;;23.38;75.24;101329.97;7278278;19;152762;-65
2022/08/02 10:31:00;;;;;;;;;;;;;;;23.36;75.32;101343.53;7281296;19;152582;-65
2022/08/02 10:33:31;;;;;;;;;;;;;;;23.39;75.02;101327.97;7287143;19;152747;-65
2022/08/02 10:35:59;;;;;;;;;;;;;;;23.40;75.04;101341.75;7282078;19;152837;-65
2022/08/02 10:38:33;;;;;;;;;;;;;;;23.42;74.92;101345.09;7281244;19;153757;-65
2022/08/02 10:40:59;;;;;;;;;;;;;;;23.40;74.61;101340.91;7281380;19;152640;-65
2022/08/02 10:43:35;;;;;;;;;;;;;;;23.44;74.20;101330.69;7280913;19;152419;-65
2022/08/02 10:46:20;;;;;;;;;;;;;;;23.42;74.74;101336.63;7280446;19;153395;-65
2022/08/02 10:49:06;;;;;;;;;;;;;;;23.46;73.83;101337.69;7279015;19;154513;-65
2022/08/02 10:51:53;;;;;;;;;;;;;;;23.51;73.66;101316.97;7280835;19;152407;-65
2022/08/02 10:54:21;;;;;;;;;;;;;;;23.53;73.21;101331.59;7281621;19;152247;-65
2022/08/02 10:56:49;;;;;;;;;;;;;;;23.54;73.40;101321.13;7288167;19;153481;-65
2022/08/02 10:59:25;;;;;;;;;;;;;;;23.56;73.05;101321.66;7281167;19;154150;-65
2022/08/02 11:01:59;;;;;;;;;;;;;;;23.59;73.13;101329.47;7277886;19;152648;-65
2022/08/02 11:04:35;;;;;;;;;;;;;;;23.54;73.06;101330.44;7278151;19;152154;-65
2022/08/02 11:07:07;;;;;;;;;;;;;;;23.60;72.62;101322.69;7275278;19;152490;-65
2022/08/02 11:09:34;;;;;;;;;;;;;;;23.61;72.80;101325.19;7280394;19;153790;-65
2022/08/02 11:12:04;;;;;;;;;;;;;;;23.61;72.82;101321.53;7276618;19;152490;-65
2022/08/02 11:14:32;;;;;;;;;;;;;;;23.61;72.58;101324.38;7277299;19;152581;-65
2022/08/02 11:17:02;;;;;;;;;;;;;;;23.61;72.89;101330.84;7282641;19;153759;-65
2022/08/02 11:19:28;;;;;;;;;;;;;;;23.61;72.64;101327.19;7283084;19;153830;-65
2022/08/02 11:22:01;;;;;;;;;;;;;;;23.64;72.99;101320.88;7280989;19;153036;-65
2022/08/02 11:24:28;;;;;;;;;;;;;;;23.60;73.32;101317.03;7280656;19;153230;-65
2022/08/02 11:26:55;;;;;;;;;;;;;;;23.63;73.50;101328.50;7281170;19;153956;-66
2022/08/02 11:29:30;;;;;;;;;;;;;;;23.63;73.51;101320.06;7280087;19;152759;-65
2022/08/02 11:32:04;;;;;;;;;;;;;;;23.64;73.50;101324.53;7282128;19;152173;-65
2022/08/02 11:34:32;;;;;;;;;;;;;;;23.64;73.79;101318.91;7276822;19;152480;-65
2022/08/02 11:37:03;;;;;;;;;;;;;;;23.65;74.01;101325.38;7280412;19;153276;-65
2022/08/02 11:39:30;;;;;;;;;;;;;;;23.68;74.37;101319.09;7280532;19;152410;-65
2022/08/02 11:41:58;;;;;;;;;;;;;;;23.71;73.65;101316.44;7286745;19;153239;-65
2022/08/02 11:44:29;;;;;;;;;;;;;;;23.68;73.91;101316.28;7281104;19;152382;-65
2022/08/02 11:47:00;;;;;;;;;;;;;;;23.72;73.58;101320.13;7281657;19;153048;-65
2022/08/02 11:49:27;;;;;;;;;;;;;;;23.73;73.43;101316.97;7275399;19;154012;-65
2022/08/02 11:52:05;;;;;;;;;;;;;;;23.81;73.33;101321.00;7279631;19;152613;-65
2022/08/02 11:54:34;;;;;;;;;;;;;;;23.82;73.18;101317.88;7280456;19;151594;-65
2022/08/02 11:57:13;;;;;;;;;;;;;;;23.84;73.02;101317.56;7281799;19;154155;-65
2022/08/02 11:59:46;;;;;;;;;;;;;;;23.86;73.12;101323.69;7287105;19;151942;-65
2022/08/02 12:02:14;;;;;;;;;;;;;;;23.83;73.36;101322.38;7285687;19;152876;-65
2022/08/02 12:04:41;;;;;;;;;;;;;;;23.85;73.01;101310.72;7290011;19;153848;-65
2022/08/02 12:07:09;;;;;;;;;;;;;;;23.84;72.94;101317.56;7286706;19;152940;-65
2022/08/02 12:09:36;;;;;;;;;;;;;;;23.90;73.30;101304.97;7287769;19;153422;-65
2022/08/02 12:12:06;;;;;;;;;;;;;;;23.89;73.69;101309.78;7282281;19;152583;-65
2022/08/02 12:14:40;;;;;;;;;;;;;;;23.94;73.02;101311.63;7282780;19;152355;-65
2022/08/02 12:19:52;;;;;;;;;;;;;;;24.03;72.89;101318.16;7281649;19;152776;-65
2022/08/02 12:22:23;;;;;;;;;;;;;;;24.07;72.46;101316.38;7285604;19;154047;-65
2022/08/02 12:24:54;;;;;;;;;;;;;;;24.07;72.39;101316.38;7291265;19;152561;-65
2022/08/02 12:27:28;;;;;;;;;;;;;;;24.08;72.61;101318.03;7285424;19;152435;-65
2022/08/02 12:30:04;;;;;;;;;;;;;;;24.19;71.64;101313.81;7282501;19;153315;-65
2022/08/02 12:32:31;;;;;;;;;;;;;;;24.16;70.90;101299.50;7286805;19;153406;-65
2022/08/02 12:35:07;;;;;;;;;;;;;;;24.22;71.53;101306.66;7283899;19;153034;-65
2022/08/02 12:37:34;;;;;;;;;;;;;;;24.20;71.00;101303.34;7284405;19;153573;-65
2022/08/02 12:40:21;;;;;;;;;;;;;;;24.21;71.49;101300.19;7284389;19;151955;-65
2022/08/02 12:42:53;;;;;;;;;;;;;;;24.29;71.00;101301.41;7284777;19;155740;-65
2022/08/02 12:45:20;;;;;;;;;;;;;;;24.31;70.86;101299.06;7284221;19;153917;-65
2022/08/02 12:47:48;;;;;;;;;;;;;;;24.29;70.77;101284.44;7290895;19;151814;-65
2022/08/02 12:50:19;;;;;;;;;;;;;;;24.32;70.47;101298.75;7280610;19;153914;-64